Time;durP1;ratioP1;P1;durP2;ratioP2;P2;SDS_P1;SDS_P2;PMS_P1;PMS_P2;Temp;Humidity;BMP_temperature;BMP_pressure;BME280_temperature;BME280_humidity;BME280_pressure;Samples;Min_cycle;Max_cycle;Signal;HPM_P1;HPM_P2
2023/12/28 00:00:21;;;;;;;47.83;15.87;;;;;;;2.02;100.00;100625.34;4957944;57;1140696;-79
2023/12/28 00:05:28;;;;;;;38.73;15.35;;;;;;;2.02;100.00;100633.17;5043060;56;1140568;-79
2023/12/28 00:10:34;;;;;;;47.60;15.93;;;;;;;2.04;100.00;100638.33;4939626;58;1141001;-79
2023/12/28 00:15:40;;;;;;;43.60;15.80;;;;;;;2.05;100.00;100639.57;4994763;57;1140624;-79
2023/12/28 00:20:45;;;;;;;38.53;14.63;;;;;;;2.06;100.00;100636.05;4995426;56;1140523;-79
2023/12/28 00:25:51;;;;;;;51.93;19.50;;;;;;;2.05;100.00;100648.70;4995261;56;1140449;-79
2023/12/28 00:30:56;;;;;;;39.33;16.13;;;;;;;2.06;100.00;100643.87;5019934;56;1140428;-78
2023/12/28 00:36:02;;;;;;;44.00;17.20;;;;;;;2.03;100.00;100630.11;4938666;57;1140354;-78
2023/12/28 00:41:09;;;;;;;42.37;15.93;;;;;;;2.02;100.00;100621.44;4995086;56;1140667;-79
2023/12/28 00:46:15;;;;;;;40.20;15.58;;;;;;;2.03;100.00;100614.45;5014798;56;1140402;-79
2023/12/28 00:51:21;;;;;;;43.90;16.97;;;;;;;2.01;100.00;100604.08;4995217;56;1140462;-79
2023/12/28 00:56:27;;;;;;;48.40;16.20;;;;;;;2.03;100.00;100583.16;4995698;57;1140800;-79
2023/12/28 01:01:33;;;;;;;44.53;14.53;;;;;;;1.97;100.00;100584.28;5014229;56;1140678;-78
2023/12/28 01:06:38;;;;;;;59.33;20.43;;;;;;;1.94;100.00;100579.63;4995137;56;1140834;-79
2023/12/28 01:11:44;;;;;;;50.73;18.07;;;;;;;1.90;100.00;100576.30;5025091;56;1140473;-78
2023/12/28 01:16:50;;;;;;;76.57;24.67;;;;;;;1.93;100.00;100583.16;5042885;56;1141115;-78
2023/12/28 01:21:56;;;;;;;45.93;14.53;;;;;;;1.93;100.00;100583.16;5060458;57;1140480;-78
2023/12/28 01:27:01;;;;;;;44.20;14.27;;;;;;;1.99;100.00;100575.91;5042536;57;1140485;-79
2023/12/28 01:32:07;;;;;;;42.23;15.43;;;;;;;2.03;100.00;100576.63;5043398;57;1140305;-79
2023/12/28 01:37:13;;;;;;;43.20;15.20;;;;;;;2.02;100.00;100579.70;5064052;56;1140852;-81
2023/12/28 01:42:19;;;;;;;36.60;13.50;;;;;;;2.00;100.00;100576.30;5043533;56;1140647;-78
2023/12/28 01:47:27;;;;;;;41.63;14.90;;;;;;;1.95;100.00;100551.34;5043555;57;1140673;-78
2023/12/28 01:52:33;;;;;;;46.17;13.63;;;;;;;1.92;100.00;100537.12;5064015;56;1140881;-79
2023/12/28 01:57:39;;;;;;;34.08;12.80;;;;;;;1.92;100.00;100528.84;5041619;56;1140600;-78
2023/12/28 02:02:46;;;;;;;33.57;12.17;;;;;;;1.96;100.00;100499.12;5039105;56;1140476;-79
2023/12/28 02:07:52;;;;;;;40.90;13.03;;;;;;;1.99;100.00;100478.55;5043827;56;1140686;-79
2023/12/28 02:12:58;;;;;;;33.93;12.70;;;;;;;2.02;100.00;100453.19;5063831;56;1140519;-79
2023/12/28 02:18:20;;;;;;;29.43;10.70;;;;;;;2.07;100.00;100453.00;4958187;57;1140642;-78
2023/12/28 02:23:26;;;;;;;24.03;9.30;;;;;;;2.18;100.00;100430.34;5043499;56;1140698;-79
2023/12/28 02:28:32;;;;;;;20.88;9.40;;;;;;;2.33;100.00;100408.32;4977332;57;1138637;-79
2023/12/28 02:33:48;;;;;;;29.40;11.68;;;;;;;2.45;100.00;100388.64;5044933;56;1138650;-79
2023/12/28 02:38:56;;;;;;;31.90;12.63;;;;;;;2.53;100.00;100396.13;5042397;56;1140506;-78
2023/12/28 02:44:02;;;;;;;41.93;14.20;;;;;;;2.55;100.00;100389.92;5043899;56;1140656;-79
2023/12/28 02:49:10;;;;;;;32.23;10.80;;;;;;;2.58;100.00;100361.07;5063465;56;1140517;-79
2023/12/28 02:54:15;;;;;;;29.03;10.40;;;;;;;2.63;100.00;100345.16;5039098;56;1142461;-78
2023/12/28 02:59:21;;;;;;;24.27;10.17;;;;;;;2.69;100.00;100327.45;5043130;56;1140389;-78
2023/12/28 03:04:27;;;;;;;22.00;9.40;;;;;;;2.73;100.00;100304.20;5062134;56;1140594;-79
2023/12/28 03:09:34;;;;;;;22.65;9.03;;;;;;;2.76;100.00;100299.26;5044509;56;1138472;-79
2023/12/28 03:14:40;;;;;;;24.67;9.77;;;;;;;2.81;100.00;100309.88;4975602;57;1138265;-78
2023/12/28 03:19:45;;;;;;;22.57;8.73;;;;;;;2.87;100.00;100285.70;5044129;57;1138192;-79
2023/12/28 03:24:51;;;;;;;22.33;9.07;;;;;;;2.89;100.00;100289.08;4938748;58;1138399;-78
2023/12/28 03:29:57;;;;;;;22.65;9.10;;;;;;;2.91;100.00;100286.75;5023958;57;1138596;-78
2023/12/28 03:35:03;;;;;;;24.33;9.20;;;;;;;2.92;100.00;100284.98;5043606;57;1138222;-78
2023/12/28 03:40:10;;;;;;;22.67;9.18;;;;;;;2.92;100.00;100257.56;4939301;57;1138262;-78
2023/12/28 03:45:16;;;;;;;21.43;10.33;;;;;;;2.93;100.00;100256.64;5024001;57;1138195;-78
2023/12/28 03:50:22;;;;;;;21.63;9.13;;;;;;;2.94;100.00;100252.64;5042924;57;1140513;-78
2023/12/28 03:55:27;;;;;;;23.20;9.60;;;;;;;2.95;100.00;100257.41;5023796;57;1138745;-78
2023/12/28 04:00:33;;;;;;;29.63;10.50;;;;;;;2.98;100.00;100242.89;4942809;56;1138713;-79
2023/12/28 04:05:39;;;;;;;18.10;8.10;;;;;;;2.98;100.00;100246.35;5015006;56;1140681;-79
2023/12/28 04:10:44;;;;;;;15.18;7.95;;;;;;;3.01;100.00;100240.98;4994699;56;1138194;-79
2023/12/28 04:15:50;;;;;;;20.50;8.90;;;;;;;3.04;100.00;100236.06;5028843;56;1138432;-79
2023/12/28 04:20:56;;;;;;;21.50;8.48;;;;;;;3.06;100.00;100242.88;5043778;57;1138320;-78
2023/12/28 04:26:02;;;;;;;20.77;7.60;;;;;;;3.13;100.00;100240.80;5062676;56;1138370;-78
2023/12/28 04:31:09;;;;;;;20.23;7.63;;;;;;;3.18;100.00;100237.05;4958166;57;1138453;-79
2023/12/28 04:36:15;;;;;;;19.30;6.97;;;;;;;3.24;100.00;100225.87;5043821;57;1138502;-79
2023/12/28 04:41:21;;;;;;;12.17;5.27;;;;;;;3.31;100.00;100240.32;5063318;57;1138414;-78
2023/12/28 04:46:27;;;;;;;17.13;6.47;;;;;;;3.39;100.00;100248.59;4957815;57;1138316;-78
2023/12/28 04:51:33;;;;;;;19.17;6.50;;;;;;;3.50;100.00;100252.81;5043473;57;1138790;-79
2023/12/28 04:56:39;;;;;;;11.50;6.03;;;;;;;3.60;100.00;100237.02;5062185;56;1138250;-79
2023/12/28 05:01:48;;;;;;;16.07;7.37;;;;;;;3.67;100.00;100237.52;4962372;56;1138166;-78
2023/12/28 05:06:53;;;;;;;14.70;5.73;;;;;;;3.72;100.00;100234.20;5024497;56;1138877;-78
2023/12/28 05:11:59;;;;;;;18.63;6.77;;;;;;;3.77;100.00;100217.80;5020659;56;1138690;-79
2023/12/28 05:17:05;;;;;;;18.30;7.03;;;;;;;3.78;100.00;100211.64;5059622;56;1138674;-79
2023/12/28 05:22:12;;;;;;;17.50;7.10;;;;;;;3.77;100.00;100212.57;4995148;57;1138331;-79
2023/12/28 05:27:18;;;;;;;12.87;5.23;;;;;;;3.75;100.00;100213.95;4995755;58;1138159;-79
2023/12/28 05:32:23;;;;;;;15.50;6.23;;;;;;;3.79;100.00;100223.80;4930153;59;1138129;-78
2023/12/28 05:37:30;;;;;;;14.77;6.00;;;;;;;3.81;100.00;100203.64;4995148;57;1138674;-79
2023/12/28 05:42:35;;;;;;;17.00;5.77;;;;;;;3.83;100.00;100213.06;4994975;57;1138641;-78
2023/12/28 05:47:41;;;;;;;14.93;5.15;;;;;;;3.88;100.00;100205.81;4930365;58;1138542;-79
2023/12/28 05:52:47;;;;;;;11.43;6.03;;;;;;;3.94;100.00;100188.10;4912928;57;1254075;-79
2023/12/28 05:57:52;;;;;;;13.17;5.37;;;;;;;3.97;100.00;100204.48;4995314;56;1138431;-79
2023/12/28 06:02:58;;;;;;;9.98;4.70;;;;;;;3.93;100.00;100201.65;4995763;56;1138544;-79
2023/12/28 06:08:04;;;;;;;21.17;6.80;;;;;;;4.03;100.00;100212.44;5015225;56;1136490;-79
2023/12/28 06:13:10;;;;;;;14.07;5.57;;;;;;;4.08;100.00;100215.19;4995130;55;1138962;-78
2023/12/28 06:18:15;;;;;;;20.90;6.07;;;;;;;4.17;100.00;100211.20;4995176;57;1138559;-79
2023/12/28 06:23:21;;;;;;;36.00;9.43;;;;;;;4.24;100.00;100226.95;5041649;57;1138458;-78
2023/12/28 06:28:27;;;;;;;19.23;5.85;;;;;;;4.32;100.00;100232.59;5023112;57;1138335;-79
2023/12/28 06:33:33;;;;;;;22.93;7.13;;;;;;;4.38;100.00;100242.73;4942469;56;1138830;-79
2023/12/28 06:38:39;;;;;;;28.55;7.97;;;;;;;4.42;100.00;100253.41;4963322;58;1138570;-79
2023/12/28 06:43:44;;;;;;;28.20;8.03;;;;;;;4.45;100.00;100263.69;4971916;56;1138323;-79
2023/12/28 06:48:50;;;;;;;22.60;6.50;;;;;;;4.43;100.00;100260.80;4942862;56;1138264;-78
2023/12/28 06:53:55;;;;;;;20.40;7.63;;;;;;;4.40;100.00;100264.44;4943806;56;1138560;-79
2023/12/28 06:59:01;;;;;;;24.27;8.07;;;;;;;4.41;100.00;100267.90;4978948;56;1138136;-79
2023/12/28 07:04:07;;;;;;;16.87;6.30;;;;;;;4.42;100.00;100264.35;5047037;55;1138543;-80
2023/12/28 07:09:37;;;;;;;7.00;3.20;;;;;;;4.47;100.00;100277.55;4980904;57;1138639;-80
2023/12/28 07:14:42;;;;;;;13.87;4.80;;;;;;;4.53;100.00;100280.30;4659321;59;1136851;-80
2023/12/28 07:19:50;;;;;;;11.20;4.40;;;;;;;4.65;100.00;100308.87;4828437;58;1138757;-80
2023/12/28 07:25:05;;;;;;;14.17;6.03;;;;;;;4.70;100.00;100301.61;4663939;61;1138859;-80
2023/12/28 07:30:12;;;;;;;21.27;6.20;;;;;;;4.74;100.00;100322.28;4765250;60;1138614;-80
2023/12/28 07:35:18;;;;;;;13.17;6.03;;;;;;;4.80;100.00;100336.82;4804171;60;1138226;-80
2023/12/28 07:40:24;;;;;;;19.40;6.47;;;;;;;4.85;100.00;100332.17;4735432;61;1138475;-79
2023/12/28 07:45:32;;;;;;;21.83;8.57;;;;;;;4.86;100.00;100326.00;4792103;59;1138538;-79
2023/12/28 07:50:38;;;;;;;10.72;4.47;;;;;;;4.86;100.00;100326.84;4799868;59;1139131;-79
2023/12/28 07:55:44;;;;;;;16.10;5.15;;;;;;;4.88;100.00;100336.78;4802970;59;1138428;-80
2023/12/28 08:00:50;;;;;;;14.13;4.63;;;;;;;4.91;100.00;100338.36;4741714;59;1138451;-79
2023/12/28 08:05:56;;;;;;;13.00;4.30;;;;;;;4.92;100.00;100336.11;4794623;58;1138608;-79
2023/12/28 08:11:01;;;;;;;7.63;3.30;;;;;;;4.98;100.00;100348.03;4762449;59;1138471;-80
2023/12/28 08:16:08;;;;;;;8.37;4.37;;;;;;;5.03;100.00;100356.48;4744375;59;1136477;-78
2023/12/28 08:21:14;;;;;;;19.10;9.30;;;;;;;5.08;100.00;100351.80;4924780;59;1136801;-80
2023/12/28 08:26:21;;;;;;;8.27;3.67;;;;;;;5.15;100.00;100338.27;4933506;57;1138737;-80
2023/12/28 08:31:29;;;;;;;8.37;2.73;;;;;;;5.22;100.00;100331.72;4943870;57;1136473;-80
2023/12/28 08:36:37;;;;;;;4.55;2.75;;;;;;;5.33;100.00;100330.27;4920687;57;1136882;-76
2023/12/28 08:41:42;;;;;;;5.95;2.85;;;;;;;5.42;100.00;100344.98;4992758;56;1136989;-77
2023/12/28 08:46:48;;;;;;;5.10;2.57;;;;;;;5.50;100.00;100348.48;4867334;58;1136985;-76
2023/12/28 08:51:53;;;;;;;3.55;2.33;;;;;;;5.59;100.00;100359.26;4922172;56;1136851;-78
2023/12/28 08:56:59;;;;;;;3.83;2.67;;;;;;;5.66;100.00;100368.44;4982795;57;1136457;-78
2023/12/28 09:02:06;;;;;;;3.47;2.07;;;;;;;5.78;100.00;100359.47;4969021;56;1136261;-79
2023/12/28 09:07:13;;;;;;;4.23;3.07;;;;;;;5.86;100.00;100355.44;4942948;58;1136716;-78
2023/12/28 09:12:18;;;;;;;4.67;2.97;;;;;;;5.94;100.00;100341.42;4892022;58;1136608;-78
2023/12/28 09:17:24;;;;;;;7.20;2.80;;;;;;;6.03;100.00;100353.13;5017458;56;1138869;-80
2023/12/28 09:22:30;;;;;;;6.57;2.73;;;;;;;6.13;100.00;100357.33;4864799;58;1136710;-78
2023/12/28 09:27:36;;;;;;;8.17;5.10;;;;;;;6.17;100.00;100343.08;4872799;58;1138915;-78
2023/12/28 09:32:41;;;;;;;5.93;2.20;;;;;;;6.26;100.00;100340.72;4958239;57;1138781;-77
2023/12/28 09:37:47;;;;;;;5.33;2.30;;;;;;;6.34;100.00;100338.94;5036744;56;1148805;-77
2023/12/28 09:43:06;;;;;;;3.43;2.13;;;;;;;6.45;100.00;100346.13;5031872;56;1139034;-80
2023/12/28 09:48:12;;;;;;;3.97;2.20;;;;;;;6.51;100.00;100358.89;4974158;57;1138800;-78
2023/12/28 09:53:18;;;;;;;5.90;2.10;;;;;;;6.61;100.00;100358.20;4857049;58;1138712;-79
2023/12/28 09:58:24;;;;;;;64.40;20.17;;;;;;;6.69;100.00;100351.16;4863272;58;1139055;-80
2023/12/28 10:03:30;;;;;;;561.50;137.83;;;;;;;6.76;100.00;100359.00;4975081;57;1142621;-77
2023/12/28 10:08:35;;;;;;;48.17;8.53;;;;;;;6.83;100.00;100361.63;4939366;57;1147132;-78
2023/12/28 10:13:43;;;;;;;41.07;9.00;;;;;;;6.88;100.00;100364.77;4924588;57;1140816;-78
2023/12/28 10:18:49;;;;;;;17.90;4.70;;;;;;;6.92;100.00;100362.80;4849716;59;1141051;-78
2023/12/28 10:23:55;;;;;;;42.80;10.17;;;;;;;6.97;100.00;100362.88;4862359;58;1141166;-77
2023/12/28 10:29:03;;;;;;;30.47;8.33;;;;;;;7.02;100.00;100355.55;4731228;60;1143364;-77
2023/12/28 10:34:09;;;;;;;33.47;9.47;;;;;;;7.06;100.00;100363.59;4823765;59;1141599;-77
2023/12/28 10:39:18;;;;;;;27.97;7.77;;;;;;;7.09;100.00;100357.28;4860298;58;1140830;-77
2023/12/28 10:44:27;;;;;;;15.03;5.40;;;;;;;7.11;100.00;100357.19;4891165;57;1141092;-77
2023/12/28 10:49:36;;;;;;;17.53;4.77;;;;;;;7.09;100.00;100361.23;5005406;57;1140881;-77
2023/12/28 10:55:08;;;;;;;18.25;4.90;;;;;;;7.12;100.00;100353.62;4938601;57;1140823;-77
2023/12/28 11:00:17;;;;;;;22.77;7.87;;;;;;;7.14;100.00;100346.47;4938419;57;1141126;-78
2023/12/28 11:05:24;;;;;;;12.83;4.57;;;;;;;7.14;100.00;100346.00;5003118;57;1141276;-78
2023/12/28 11:10:31;;;;;;;22.77;7.57;;;;;;;7.17;100.00;100335.76;5013953;57;1140876;-78
2023/12/28 11:15:39;;;;;;;15.83;6.17;;;;;;;7.20;100.00;100339.47;4848100;58;1172091;-78
2023/12/28 11:20:46;;;;;;;19.50;6.60;;;;;;;7.20;100.00;100328.48;4934658;58;1138456;-79
2023/12/28 11:25:51;;;;;;;15.23;5.23;;;;;;;7.23;100.00;100326.13;4896971;57;1141123;-79
2023/12/28 11:30:58;;;;;;;16.73;7.03;;;;;;;7.25;100.00;100318.98;5031665;56;1140744;-77
2023/12/28 11:36:09;;;;;;;15.37;7.00;;;;;;;7.29;100.00;100325.25;5021528;56;1140824;-78
2023/12/28 11:41:18;;;;;;;129.65;66.53;;;;;;;7.32;100.00;100320.27;5014060;57;1140821;-78
2023/12/28 11:46:25;;;;;;;15.43;6.28;;;;;;;7.33;100.00;100314.06;5058058;56;1145308;-77
2023/12/28 11:51:31;;;;;;;9.53;4.40;;;;;;;7.34;100.00;100313.09;5008232;56;1141094;-78
2023/12/28 11:56:37;;;;;;;11.13;4.73;;;;;;;7.36;100.00;100303.30;4836292;58;1139143;-79
2023/12/28 12:01:42;;;;;;;9.77;4.37;;;;;;;7.38;100.00;100301.42;4914156;57;1141234;-78
2023/12/28 12:06:50;;;;;;;8.73;4.62;;;;;;;7.44;100.00;100312.85;4980859;57;1138926;-79
2023/12/28 12:11:56;;;;;;;4.78;3.25;;;;;;;7.46;100.00;100309.65;4972898;56;1138882;-78
2023/12/28 12:17:02;;;;;;;8.03;4.17;;;;;;;7.47;100.00;100302.13;5013277;56;1138874;-77
2023/12/28 12:22:08;;;;;;;6.50;3.90;;;;;;;7.52;100.00;100295.21;4990518;57;1138898;-77
2023/12/28 12:27:13;;;;;;;8.60;3.62;;;;;;;7.65;100.00;100291.63;4921871;56;1138768;-78
2023/12/28 12:32:19;;;;;;;9.03;3.77;;;;;;;7.85;100.00;100315.27;4898349;58;1139123;-78
2023/12/28 12:37:26;;;;;;;8.47;3.40;;;;;;;8.19;100.00;100304.53;4873025;58;1139008;-78
2023/12/28 12:42:32;;;;;;;8.87;4.30;;;;;;;8.36;100.00;100304.67;4871677;58;1138702;-78
2023/12/28 12:47:38;;;;;;;6.10;4.07;;;;;;;8.69;100.00;100309.30;4896085;58;1138878;-78
2023/12/28 12:52:45;;;;;;;5.40;3.67;;;;;;;8.97;100.00;100308.95;4867349;58;1138943;-78
2023/12/28 12:57:51;;;;;;;7.93;4.83;;;;;;;9.30;100.00;100316.14;4888105;58;1138727;-78
2023/12/28 13:02:58;;;;;;;8.23;4.17;;;;;;;9.50;100.00;100315.45;5034262;57;1138959;-78
2023/12/28 13:08:05;;;;;;;20.93;11.77;;;;;;;9.80;100.00;100312.72;4947349;57;1139027;-79
2023/12/28 13:13:11;;;;;;;15.17;7.43;;;;;;;9.95;100.00;100301.44;4853942;57;1142972;-78
2023/12/28 13:18:16;;;;;;;9.40;5.37;;;;;;;9.86;100.00;100301.22;4912201;58;1141004;-78
2023/12/28 13:23:22;;;;;;;9.38;6.22;;;;;;;9.49;100.00;100313.77;4989290;58;1138907;-78
2023/12/28 13:28:27;;;;;;;9.73;4.63;;;;;;;9.39;100.00;100306.67;4995014;57;1138857;-79
2023/12/28 13:33:33;;;;;;;9.20;4.50;;;;;;;9.20;100.00;100311.65;4965070;57;1138623;-77
2023/12/28 13:38:39;;;;;;;107.57;36.93;;;;;;;8.88;100.00;100313.56;4971748;57;1139192;-76
2023/12/28 13:43:44;;;;;;;10.90;5.43;;;;;;;8.64;100.00;100314.06;4954826;57;1145384;-78
2023/12/28 13:48:50;;;;;;;7.87;5.00;;;;;;;8.46;100.00;100292.51;4964487;57;1140961;-78
2023/12/28 13:53:55;;;;;;;6.63;4.47;;;;;;;8.31;100.00;100285.20;4966621;57;1138814;-79
2023/12/28 13:59:01;;;;;;;12.20;4.93;;;;;;;8.23;100.00;100277.50;4988635;57;1138899;-79
2023/12/28 14:04:07;;;;;;;9.73;4.87;;;;;;;8.13;100.00;100270.23;4941868;57;1140848;-78
2023/12/28 14:09:12;;;;;;;11.00;5.27;;;;;;;8.04;100.00;100275.32;5006217;56;1138639;-77
2023/12/28 14:14:18;;;;;;;9.67;5.87;;;;;;;7.95;100.00;100275.95;5112149;56;1141211;-76
2023/12/28 14:19:23;;;;;;;12.63;5.97;;;;;;;7.87;100.00;100275.67;5071004;56;1138814;-76
2023/12/28 14:24:29;;;;;;;13.60;6.90;;;;;;;7.78;100.00;100282.91;5078753;56;1141897;-78
2023/12/28 14:29:36;;;;;;;12.63;7.10;;;;;;;7.71;100.00;100295.16;5035635;56;1141226;-81
2023/12/28 14:34:42;;;;;;;17.27;7.83;;;;;;;7.66;100.00;100294.63;4989962;56;1140885;-77
2023/12/28 14:39:47;;;;;;;18.30;6.77;;;;;;;7.60;100.00;100301.66;5018557;56;1141069;-77
2023/12/28 14:44:53;;;;;;;17.48;8.83;;;;;;;7.50;100.00;100303.20;5014852;57;1141236;-79
2023/12/28 14:49:59;;;;;;;13.72;6.22;;;;;;;7.39;100.00;100306.58;5035320;57;1141291;-82
2023/12/28 14:55:05;;;;;;;12.80;5.80;;;;;;;7.32;100.00;100306.64;4928895;57;1141158;-77
2023/12/28 15:00:12;;;;;;;144.82;39.15;;;;;;;7.26;100.00;100318.87;4936005;58;1141027;-78
2023/12/28 15:05:17;;;;;;;55.00;14.03;;;;;;;7.21;100.00;100311.75;5027426;56;1145212;-78
2023/12/28 15:10:23;;;;;;;29.72;10.63;;;;;;;7.12;100.00;100312.38;4999276;56;1143135;-76
2023/12/28 15:15:30;;;;;;;144.87;33.67;;;;;;;7.06;100.00;100304.42;5009031;56;1143148;-77
2023/12/28 15:20:36;;;;;;;133.03;29.57;;;;;;;7.01;100.00;100300.43;5039428;56;1144788;-76
2023/12/28 15:25:43;;;;;;;26.40;11.27;;;;;;;6.95;100.00;100301.66;5044731;56;1144757;-76
2023/12/28 15:30:48;;;;;;;33.03;11.87;;;;;;;6.89;100.00;100299.90;5024302;56;1143030;-77
2023/12/28 15:35:54;;;;;;;24.97;9.77;;;;;;;6.83;100.00;100302.95;4941558;57;1143217;-76
2023/12/28 15:40:59;;;;;;;28.73;13.43;;;;;;;6.76;100.00;100295.92;4978381;57;1140856;-76
2023/12/28 15:46:05;;;;;;;22.30;10.13;;;;;;;6.72;100.00;100302.34;4958737;57;1142627;-78
2023/12/28 15:51:11;;;;;;;30.30;14.00;;;;;;;6.70;100.00;100314.73;4958402;57;1142616;-77
2023/12/28 15:56:16;;;;;;;22.27;11.20;;;;;;;6.65;100.00;100311.09;5005606;58;1143067;-77
2023/12/28 16:01:22;;;;;;;22.13;8.55;;;;;;;6.58;100.00;100311.56;4886542;58;1142953;-76
2023/12/28 16:06:27;;;;;;;32.55;12.50;;;;;;;6.54;100.00;100317.98;4965696;57;1140975;-77
2023/12/28 16:11:33;;;;;;;33.08;13.65;;;;;;;6.49;100.00;100308.22;5035597;56;1143134;-77
2023/12/28 16:16:39;;;;;;;26.30;10.77;;;;;;;6.48;100.00;100316.58;5005109;56;1142962;-76
2023/12/28 16:21:46;;;;;;;38.07;14.37;;;;;;;6.45;100.00;100315.92;5019425;56;1142782;-79
2023/12/28 16:26:52;;;;;;;40.27;14.67;;;;;;;6.41;100.00;100315.30;4993983;57;1142863;-78
2023/12/28 16:32:00;;;;;;;26.87;11.73;;;;;;;6.38;100.00;100312.86;4966545;57;1143008;-77
2023/12/28 16:37:05;;;;;;;30.20;12.77;;;;;;;6.37;100.00;100314.27;4959970;57;1143174;-78
2023/12/28 16:42:11;;;;;;;18.97;9.13;;;;;;;6.31;100.00;100322.05;5023248;56;1142903;-78
2023/12/28 16:47:16;;;;;;;23.63;9.93;;;;;;;6.26;100.00;100319.70;5043242;56;1150427;-78
2023/12/28 16:52:22;;;;;;;25.85;13.35;;;;;;;6.23;100.00;100317.77;4938214;57;1138788;-78
2023/12/28 16:57:28;;;;;;;42.03;24.20;;;;;;;6.21;100.00;100307.36;5023124;56;1140956;-78
2023/12/28 17:02:33;;;;;;;18.93;10.23;;;;;;;6.18;100.00;100309.33;5044376;56;1140695;-78
2023/12/28 17:07:39;;;;;;;25.30;13.03;;;;;;;6.14;100.00;100299.47;4961144;58;1140659;-78
2023/12/28 17:12:46;;;;;;;16.03;8.50;;;;;;;6.16;100.00;100301.54;4942983;56;1140869;-78
2023/12/28 17:17:52;;;;;;;19.13;9.50;;;;;;;6.19;100.00;100293.48;4958985;57;1138651;-78
2023/12/28 17:23:02;;;;;;;22.65;12.50;;;;;;;6.20;100.00;100291.70;5044229;56;1138992;-78
2023/12/28 17:28:18;;;;;;;18.57;8.60;;;;;;;6.23;100.00;100290.20;4970342;57;1140884;-78
2023/12/28 17:33:24;;;;;;;14.27;8.13;;;;;;;6.23;100.00;100299.38;4934636;57;1139018;-79
2023/12/28 17:38:30;;;;;;;15.03;9.30;;;;;;;6.24;100.00;100301.07;4876354;58;1139046;-77
2023/12/28 17:43:47;;;;;;;44.80;18.27;;;;;;;6.23;100.00;100300.23;4852555;58;1138725;-78
2023/12/28 17:48:56;;;;;;;37.43;18.57;;;;;;;6.22;100.00;100299.01;4935049;58;1140961;-78
2023/12/28 17:54:02;;;;;;;30.27;16.12;;;;;;;6.21;100.00;100310.45;4856487;58;1140927;-77
2023/12/28 17:59:08;;;;;;;35.57;18.93;;;;;;;6.17;100.00;100312.41;4890768;58;1141093;-78
2023/12/28 18:04:13;;;;;;;24.60;14.00;;;;;;;6.14;100.00;100302.09;4871304;58;1140898;-78
2023/12/28 18:09:26;;;;;;;22.73;13.33;;;;;;;6.15;100.00;100304.26;4937796;56;1141029;-77
2023/12/28 18:14:26;;;;;;;18.73;12.25;;;;;;;6.18;100.00;100304.07;4907451;58;1140970;-77
2023/12/28 18:19:32;;;;;;;17.83;8.13;;;;;;;6.18;100.00;100300.13;4887678;58;1141205;-77
2023/12/28 18:24:37;;;;;;;14.60;8.07;;;;;;;6.19;100.00;100297.88;4919540;57;1138891;-77
2023/12/28 18:29:48;;;;;;;22.50;12.63;;;;;;;6.18;100.00;100302.76;4941370;58;1138953;-77
2023/12/28 18:34:51;;;;;;;50.50;27.95;;;;;;;6.22;100.00;100306.42;4888568;57;1140830;-77
2023/12/28 18:39:57;;;;;;;36.00;17.93;;;;;;;6.25;100.00;100305.39;4839053;59;1142918;-78
2023/12/28 18:45:02;;;;;;;30.70;16.47;;;;;;;6.28;100.00;100298.13;4985452;57;1143012;-76
2023/12/28 18:50:11;;;;;;;18.37;11.47;;;;;;;6.30;100.00;100306.77;4872239;57;1143038;-76
2023/12/28 18:55:17;;;;;;;13.65;8.45;;;;;;;6.30;100.00;100307.23;4924999;57;1143032;-78
2023/12/28 19:00:23;;;;;;;18.95;8.78;;;;;;;6.28;100.00;100309.95;4930896;56;1140655;-76
2023/12/28 19:05:28;;;;;;;19.02;8.53;;;;;;;6.23;100.00;100301.55;4915619;55;1140637;-77
2023/12/28 19:10:35;;;;;;;23.05;9.30;;;;;;;6.20;100.00;100294.31;4889598;57;1141013;-77
2023/12/28 19:15:40;;;;;;;18.60;8.53;;;;;;;6.19;100.00;100293.94;4909047;57;1140784;-77
2023/12/28 19:20:46;;;;;;;24.73;9.10;;;;;;;6.16;100.00;100298.91;4883090;59;1140983;-77
2023/12/28 19:25:51;;;;;;;17.37;7.97;;;;;;;6.12;100.00;100291.31;4879360;58;1140736;-77
2023/12/28 19:30:57;;;;;;;76.85;31.90;;;;;;;6.09;100.00;100295.00;4962048;57;1140719;-77
2023/12/28 19:36:03;;;;;;;63.47;30.30;;;;;;;6.05;100.00;100297.91;5003345;57;1140802;-77
2023/12/28 19:41:08;;;;;;;58.83;24.33;;;;;;;6.00;100.00;100300.34;4983856;57;1141004;-78
2023/12/28 19:46:14;;;;;;;71.83;37.37;;;;;;;5.94;100.00;100295.95;4980996;57;1140718;-77
2023/12/28 19:51:20;;;;;;;36.33;16.37;;;;;;;5.92;100.00;100284.23;5005729;57;1147991;-77
2023/12/28 19:56:26;;;;;;;23.75;12.18;;;;;;;5.91;100.00;100282.55;4985048;57;1141248;-78
2023/12/28 20:01:31;;;;;;;29.02;12.00;;;;;;;5.88;100.00;100276.17;4953455;56;1140902;-77
2023/12/28 20:06:37;;;;;;;19.42;9.75;;;;;;;5.87;100.00;100269.20;4893681;56;1140810;-76
2023/12/28 20:11:43;;;;;;;21.60;10.53;;;;;;;5.87;100.00;100273.61;4851208;58;1138914;-77
2023/12/28 20:16:49;;;;;;;19.63;10.10;;;;;;;5.86;100.00;100275.39;4932114;57;1140883;-77
2023/12/28 20:21:55;;;;;;;23.00;10.40;;;;;;;5.84;100.00;100271.16;4871749;57;1140847;-76
2023/12/28 20:27:00;;;;;;;20.60;7.77;;;;;;;5.83;100.00;100272.95;4881291;58;1140952;-76
2023/12/28 20:32:07;;;;;;;14.47;7.10;;;;;;;5.81;100.00;100281.84;4971125;57;1138793;-75
2023/12/28 20:37:13;;;;;;;12.90;7.07;;;;;;;5.81;100.00;100277.91;4986749;57;1139057;-78
2023/12/28 20:42:20;;;;;;;17.80;8.03;;;;;;;5.77;100.00;100270.72;5053069;57;1138866;-78
2023/12/28 20:47:25;;;;;;;15.57;8.47;;;;;;;5.77;100.00;100281.22;5020639;57;1138911;-77
2023/12/28 20:52:31;;;;;;;17.75;7.85;;;;;;;5.76;100.00;100282.62;5021533;56;1139114;-78
2023/12/28 20:57:37;;;;;;;18.77;9.33;;;;;;;5.74;100.00;100282.71;4991334;57;1138569;-77
2023/12/28 21:02:43;;;;;;;16.07;8.67;;;;;;;5.70;100.00;100282.52;5016210;57;1138889;-78
2023/12/28 21:07:49;;;;;;;24.40;12.10;;;;;;;5.67;100.00;100276.14;5043027;56;1138676;-78
2023/12/28 21:13:01;;;;;;;19.87;9.93;;;;;;;5.64;100.00;100285.53;5036826;56;1140854;-78
2023/12/28 21:18:02;;;;;;;20.83;9.73;;;;;;;5.59;100.00;100281.02;4969339;57;1138796;-78
2023/12/28 21:23:08;;;;;;;16.17;7.80;;;;;;;5.58;100.00;100277.55;4877716;57;1138666;-78
2023/12/28 21:28:14;;;;;;;17.83;8.50;;;;;;;5.56;100.00;100280.73;4901876;58;1138735;-77
2023/12/28 21:33:19;;;;;;;15.40;7.23;;;;;;;5.52;100.00;100268.73;4973337;58;1138688;-79
2023/12/28 21:38:25;;;;;;;53.97;18.70;;;;;;;5.53;100.00;100269.11;4854784;58;1138699;-77
2023/12/28 21:43:31;;;;;;;17.17;7.83;;;;;;;5.53;100.00;100274.83;4823528;58;1142873;-79
2023/12/28 21:48:36;;;;;;;14.70;6.80;;;;;;;5.50;100.00;100277.16;5010249;57;1138619;-78
2023/12/28 21:53:42;;;;;;;17.53;7.33;;;;;;;5.48;100.00;100273.81;4882193;57;1138683;-79
2023/12/28 21:58:48;;;;;;;20.73;8.00;;;;;;;5.47;100.00;100270.81;4880028;58;1139614;-77
2023/12/28 22:03:53;;;;;;;21.14;9.52;;;;;;;5.46;100.00;100269.59;4884330;57;1138525;-78
2023/12/28 22:08:59;;;;;;;21.93;9.23;;;;;;;5.43;100.00;100273.23;4900317;58;1138812;-77
2023/12/28 22:14:05;;;;;;;22.70;9.00;;;;;;;5.42;100.00;100278.57;4877098;58;1138739;-78
2023/12/28 22:19:10;;;;;;;13.73;7.10;;;;;;;5.43;100.00;100282.88;4881989;57;1138617;-78
2023/12/28 22:24:16;;;;;;;14.07;7.13;;;;;;;5.41;100.00;100272.95;4967685;57;1138716;-79
2023/12/28 22:29:22;;;;;;;13.23;6.83;;;;;;;5.41;100.00;100273.80;4958618;57;1138762;-78
2023/12/28 22:34:28;;;;;;;14.30;6.27;;;;;;;5.43;100.00;100274.55;4879531;59;1138887;-78
2023/12/28 22:39:34;;;;;;;14.73;6.90;;;;;;;5.43;100.00;100268.46;4896251;58;1138797;-80
2023/12/28 22:44:40;;;;;;;12.37;5.97;;;;;;;5.43;100.00;100272.39;4781152;59;1138588;-79
2023/12/28 22:49:45;;;;;;;12.28;6.40;;;;;;;5.43;100.00;100266.68;4909497;57;1138512;-77